createdAt,value
2018-04-20T00:01:25.713Z,42.82
2018-04-20T00:04:29.086Z,43.01
2018-04-20T00:07:32.309Z,41.89
2018-04-20T00:10:35.589Z,41.48
2018-04-20T00:13:38.872Z,41.52
2018-04-20T00:16:42.184Z,41.57
2018-04-20T00:19:45.471Z,42.38
2018-04-20T00:22:48.692Z,43.03
2018-04-20T00:25:52.061Z,41.93
2018-04-20T00:28:55.361Z,42.91
2018-04-20T00:31:59.711Z,42.65
2018-04-20T00:35:03.039Z,43.18
2018-04-20T00:38:06.372Z,42.36
2018-04-20T00:41:09.625Z,43.85
2018-04-20T00:44:12.983Z,43.45
2018-04-20T00:47:16.284Z,43.38
2018-04-20T00:50:19.570Z,44.54
2018-04-20T00:53:23.004Z,44.25
2018-04-20T00:56:26.165Z,43.72
2018-04-20T00:59:29.475Z,43.48
2018-04-20T01:02:32.909Z,43.20
2018-04-20T01:05:36.259Z,43.14
2018-04-20T01:08:39.563Z,43.01
2018-04-20T01:11:42.848Z,43.16
2018-04-20T01:14:46.153Z,42.77
2018-04-20T01:17:49.410Z,42.88
2018-04-20T01:20:52.652Z,43.26
2018-04-20T01:23:56.045Z,44.07
2018-04-20T01:26:59.264Z,44.27
2018-04-20T01:30:02.499Z,43.56
2018-04-20T01:33:05.769Z,44.06
2018-04-20T01:36:09.169Z,43.57
2018-04-20T01:39:12.417Z,44.04
2018-04-20T01:42:15.625Z,44.15
2018-04-20T01:45:18.913Z,44.76
2018-04-20T01:48:22.215Z,45.04
2018-04-20T01:51:25.626Z,45.29
2018-04-20T01:54:28.912Z,45.61
2018-04-20T01:57:32.228Z,45.83
2018-04-20T02:00:35.504Z,45.77
2018-04-20T02:03:38.831Z,46.31
2018-04-20T02:06:42.001Z,46.87
2018-04-20T02:09:45.317Z,46.78
2018-04-20T02:12:48.632Z,46.45
2018-04-20T02:15:51.884Z,47.01
2018-04-20T02:18:55.202Z,46.97
2018-04-20T02:21:58.601Z,47.42
2018-04-20T02:25:01.983Z,48.79
2018-04-20T02:28:05.224Z,49.56
2018-04-20T02:31:08.584Z,50.56
2018-04-20T02:34:11.898Z,51.03
2018-04-20T02:37:15.183Z,52.13
2018-04-20T02:40:18.584Z,53.54
2018-04-20T02:43:21.893Z,54.45
2018-04-20T02:46:25.185Z,55.24
2018-04-20T02:49:28.492Z,55.37
2018-04-20T02:52:31.898Z,55.67
2018-04-20T02:55:35.092Z,55.29
2018-04-20T02:58:38.370Z,56.06
2018-04-20T03:01:41.678Z,56.08
2018-04-20T03:04:44.963Z,56.17
2018-04-20T03:07:48.260Z,56.68
2018-04-20T03:10:51.561Z,57.03
2018-04-20T03:13:54.861Z,57.11
2018-04-20T03:16:58.157Z,57.59
2018-04-20T03:20:01.553Z,57.56
2018-04-20T03:23:04.832Z,57.57
2018-04-20T03:26:08.085Z,57.72
2018-04-20T03:29:11.477Z,57.62
2018-04-20T03:32:14.856Z,57.34
2018-04-20T03:35:18.145Z,57.98
2018-04-20T03:38:21.553Z,57.76
2018-04-20T03:41:25.083Z,58.04
2018-04-20T03:44:28.284Z,57.85
2018-04-20T03:47:31.553Z,57.67
2018-04-20T03:50:34.889Z,56.77
2018-04-20T03:53:38.184Z,57.34
2018-04-20T03:56:41.441Z,56.85
2018-04-20T03:59:44.775Z,58.34
2018-04-20T04:02:48.048Z,58.66
2018-04-20T04:05:51.327Z,59.00
2018-04-20T04:08:54.676Z,59.40
2018-04-20T04:11:57.949Z,59.04
2018-04-20T04:15:01.137Z,59.16
2018-04-20T04:19:18.745Z,59.49
2018-04-20T04:22:33.376Z,58.15
2018-04-20T04:26:45.880Z,58.80
2018-04-20T04:29:49.151Z,59.09
2018-04-20T04:32:54.413Z,58.97
2018-04-20T04:35:57.668Z,59.22
2018-04-20T04:39:00.923Z,58.95
2018-04-20T04:42:04.083Z,58.98
2018-04-20T04:45:07.368Z,58.80
2018-04-20T04:48:10.689Z,59.14
2018-04-20T04:51:13.975Z,59.07
2018-04-20T04:54:17.247Z,58.92
2018-04-20T04:57:20.573Z,59.57
2018-04-20T05:00:23.938Z,58.91
2018-04-20T05:03:27.246Z,59.17
2018-04-20T05:06:30.672Z,59.21
2018-04-20T05:09:34.062Z,59.11
2018-04-20T05:12:37.263Z,59.23
2018-04-20T05:15:40.563Z,58.78
2018-04-20T05:18:43.892Z,59.44
2018-04-20T05:21:47.227Z,58.88
2018-04-20T05:24:50.456Z,59.01
2018-04-20T05:27:53.752Z,59.18
2018-04-20T05:30:57.040Z,57.65
2018-04-20T05:34:00.256Z,56.26
2018-04-20T05:37:03.641Z,55.69
2018-04-20T05:40:06.932Z,56.40
2018-04-20T05:43:10.212Z,56.60
2018-04-20T05:46:13.508Z,56.03
2018-04-20T05:49:16.823Z,55.05
2018-04-20T05:52:19.996Z,55.79
2018-04-20T05:55:23.304Z,55.46
2018-04-20T05:58:26.544Z,56.01
2018-04-20T06:01:29.823Z,55.53
2018-04-20T06:04:33.100Z,55.29
2018-04-20T06:07:36.381Z,55.41
2018-04-20T06:10:39.581Z,54.68
2018-04-20T06:13:42.823Z,54.70
2018-04-20T06:16:46.019Z,54.40
2018-04-20T06:19:49.206Z,54.08
2018-04-20T06:22:52.497Z,53.56
2018-04-20T06:25:55.860Z,53.33
2018-04-20T06:28:59.160Z,53.24
2018-04-20T06:32:02.489Z,52.26
2018-04-20T06:35:05.758Z,52.23
2018-04-20T06:38:09.048Z,52.48
2018-04-20T06:41:12.344Z,51.49
2018-04-20T06:44:15.652Z,52.03
2018-04-20T06:47:18.959Z,51.97
2018-04-20T06:50:22.164Z,51.03
2018-04-20T06:53:25.443Z,51.24
2018-04-20T06:56:28.722Z,51.30
2018-04-20T06:59:31.910Z,50.37
2018-04-20T07:02:35.135Z,50.44
2018-04-20T07:05:38.439Z,50.08
2018-04-20T07:08:41.733Z,50.19
2018-04-20T07:11:45.044Z,48.54
2018-04-20T07:14:48.317Z,47.09
2018-04-20T07:17:51.519Z,46.17
2018-04-20T07:20:54.814Z,45.04
2018-04-20T07:23:58.100Z,44.59
2018-04-20T07:27:02.802Z,44.30
2018-04-20T07:30:06.224Z,44.65
2018-04-20T07:33:09.456Z,43.78
2018-04-20T07:36:12.641Z,44.14
2018-04-20T07:39:15.859Z,44.12
2018-04-20T07:42:19.004Z,44.34
2018-04-20T07:45:22.267Z,44.62
2018-04-20T07:48:25.423Z,44.15
2018-04-20T07:51:28.695Z,42.93
2018-04-20T07:54:31.944Z,42.93
2018-04-20T07:57:35.188Z,43.38
2018-04-20T08:00:38.308Z,42.77
2018-04-20T08:03:41.487Z,43.05
2018-04-20T08:06:44.692Z,43.45
2018-04-20T08:09:47.912Z,43.02
2018-04-20T08:12:51.077Z,42.96
2018-04-20T08:15:54.276Z,42.89
2018-04-20T08:18:57.476Z,41.93
2018-04-20T08:22:00.682Z,42.11
2018-04-20T08:25:03.832Z,41.47
2018-04-20T08:28:07.056Z,42.83
2018-04-20T08:31:10.180Z,42.17
2018-04-20T08:34:13.388Z,41.61
2018-04-20T08:37:16.435Z,42.55
2018-04-20T08:40:19.637Z,42.17
2018-04-20T08:43:22.748Z,41.40
2018-04-20T08:46:25.909Z,41.50
2018-04-20T08:49:29.223Z,41.32
2018-04-20T08:52:32.432Z,41.17
2018-04-20T08:55:35.627Z,41.03
2018-04-20T08:58:38.793Z,40.70
2018-04-20T09:01:42.073Z,40.21
2018-04-20T09:04:45.184Z,39.91
2018-04-20T09:07:48.499Z,41.43
2018-04-20T09:10:51.677Z,41.02
2018-04-20T09:13:54.827Z,40.95
2018-04-20T09:16:58.051Z,39.14
2018-04-20T09:20:01.384Z,39.21
2018-04-20T09:23:04.657Z,39.16
2018-04-20T09:26:07.943Z,38.42
2018-04-20T09:29:11.216Z,38.61
2018-04-20T09:32:14.356Z,38.05
2018-04-20T09:35:17.589Z,38.22
2018-04-20T09:38:20.749Z,38.04
2018-04-20T09:41:24.029Z,39.42
2018-04-20T09:44:27.229Z,39.49
2018-04-20T09:47:30.540Z,38.56
2018-04-20T09:50:33.808Z,39.65
2018-04-20T09:53:37.140Z,39.17
2018-04-20T09:56:40.461Z,38.76
2018-04-20T09:59:43.621Z,37.94
2018-04-20T10:02:46.840Z,38.12
2018-04-20T10:05:50.111Z,37.21
2018-04-20T10:08:53.401Z,38.69
2018-04-20T10:11:56.980Z,39.00
2018-04-20T10:15:00.184Z,37.24
2018-04-20T10:18:04.419Z,37.76
2018-04-20T10:21:07.715Z,38.55
2018-04-20T10:24:10.906Z,37.59
2018-04-20T10:27:14.199Z,37.30
2018-04-20T10:30:17.427Z,37.05
2018-04-20T10:33:20.596Z,35.04
2018-04-20T10:36:23.904Z,34.11
2018-04-20T10:39:27.195Z,33.98
2018-04-20T10:42:39.220Z,34.03
2018-04-20T10:45:42.484Z,34.74
2018-04-20T10:48:45.625Z,37.36
2018-04-20T10:51:48.877Z,35.46
2018-04-20T10:54:52.119Z,36.39
2018-04-20T10:57:55.388Z,35.53
2018-04-20T11:00:58.571Z,35.48
2018-04-20T11:04:01.860Z,35.44
2018-04-20T11:07:05.068Z,35.95
2018-04-20T11:10:08.274Z,36.41
2018-04-20T11:13:11.564Z,34.54
2018-04-20T11:16:14.853Z,34.24
2018-04-20T11:19:19.044Z,34.53
2018-04-20T11:22:22.280Z,35.36
2018-04-20T11:25:25.611Z,33.84
2018-04-20T11:28:28.755Z,33.66
2018-04-20T11:31:31.976Z,33.72
2018-04-20T11:34:35.258Z,32.85
2018-04-20T11:37:38.543Z,32.61
2018-04-20T11:40:41.599Z,31.41
2018-04-20T11:43:44.823Z,32.54
2018-04-20T11:46:48.034Z,31.71
2018-04-20T11:49:51.356Z,30.85
2018-04-20T11:52:54.576Z,31.18
2018-04-20T11:55:57.785Z,30.82
2018-04-20T11:59:01.065Z,31.53
2018-04-20T12:02:04.352Z,29.99
2018-04-20T12:05:07.696Z,29.81
2018-04-20T12:08:10.948Z,31.29
2018-04-20T12:11:14.241Z,29.95
2018-04-20T12:14:17.517Z,28.81
2018-04-20T12:17:21.845Z,29.82
2018-04-20T12:20:25.137Z,31.04
2018-04-20T12:23:28.419Z,30.83
2018-04-20T12:26:31.693Z,31.35
2018-04-20T12:29:34.924Z,30.96
2018-04-20T12:32:38.165Z,29.07
2018-04-20T12:35:41.416Z,30.31
2018-04-20T12:38:44.720Z,28.06
2018-04-20T12:41:48.045Z,28.66
2018-04-20T12:44:51.339Z,29.78
2018-04-20T12:47:54.487Z,29.23
2018-04-20T12:50:57.872Z,28.31
2018-04-20T12:54:01.116Z,26.82
2018-04-20T12:57:04.376Z,27.66
2018-04-20T13:00:07.599Z,28.12
2018-04-20T13:03:10.885Z,28.50
2018-04-20T13:06:14.185Z,27.80
2018-04-20T13:09:17.459Z,27.91
2018-04-20T13:12:20.644Z,27.04
2018-04-20T13:15:23.877Z,26.34
2018-04-20T13:18:27.220Z,27.50
2018-04-20T13:21:30.493Z,26.02
2018-04-20T13:24:33.743Z,26.05
2018-04-20T13:27:37.049Z,26.21
2018-04-20T13:30:40.364Z,25.47
2018-04-20T13:33:43.641Z,25.42
2018-04-20T13:36:46.937Z,24.41
2018-04-20T13:39:50.155Z,24.22
2018-04-20T13:42:53.291Z,25.07
2018-04-20T13:45:56.440Z,25.98
2018-04-20T13:48:59.737Z,25.58
2018-04-20T13:52:03.035Z,24.78
2018-04-20T13:55:06.347Z,24.56
2018-04-20T13:58:09.906Z,24.39
2018-04-20T14:01:13.160Z,25.04
2018-04-20T14:04:16.414Z,24.39
2018-04-20T14:07:19.725Z,23.45
2018-04-20T14:10:23.048Z,23.15
2018-04-20T14:13:26.205Z,23.86
2018-04-20T14:16:29.508Z,22.98
2018-04-20T14:19:32.838Z,22.29
2018-04-20T14:22:36.095Z,22.97
2018-04-20T14:25:39.433Z,22.51
2018-04-20T14:28:42.673Z,22.66
2018-04-20T14:31:45.952Z,21.62
2018-04-20T14:34:49.248Z,20.89
2018-04-20T14:37:52.493Z,20.79
2018-04-20T14:40:55.926Z,22.20
2018-04-20T14:43:59.305Z,22.07
2018-04-20T14:47:03.162Z,22.23
2018-04-20T14:50:06.453Z,21.17
2018-04-20T14:53:09.800Z,21.94
2018-04-20T14:56:13.107Z,21.18
2018-04-20T14:59:16.366Z,21.47
2018-04-20T15:02:19.709Z,21.16
2018-04-20T15:05:22.895Z,21.20
2018-04-20T15:08:26.091Z,20.71
2018-04-20T15:11:29.308Z,20.00
2018-04-20T15:14:32.839Z,20.09
2018-04-20T15:17:36.212Z,19.93
2018-04-20T15:20:39.632Z,21.96
2018-04-20T15:23:43.090Z,21.01
2018-04-20T15:26:46.522Z,21.68
2018-04-20T15:29:49.954Z,21.55
2018-04-20T15:32:53.222Z,20.98
2018-04-20T15:35:56.108Z,21.32
2018-04-20T15:39:00.505Z,20.72
2018-04-20T15:42:03.858Z,20.54
2018-04-20T15:45:07.135Z,20.29
2018-04-20T15:48:10.603Z,20.52
2018-04-20T15:51:13.895Z,20.32
2018-04-20T15:54:17.201Z,20.57
2018-04-20T15:57:20.598Z,22.02
2018-04-20T16:00:23.824Z,22.37
2018-04-20T16:03:27.088Z,21.62
2018-04-20T16:06:30.484Z,21.42
2018-04-20T16:09:33.698Z,21.53
2018-04-20T16:12:36.936Z,21.46
2018-04-20T16:15:40.260Z,21.63
2018-04-20T16:18:43.646Z,20.75
2018-04-20T16:21:46.969Z,21.63
2018-04-20T16:24:50.325Z,21.30
2018-04-20T16:27:53.673Z,21.91
2018-04-20T16:30:56.966Z,22.08
2018-04-20T16:34:00.323Z,22.83
2018-04-20T16:37:03.626Z,23.20
2018-04-20T16:40:06.949Z,23.42
2018-04-20T16:43:10.279Z,22.70
2018-04-20T16:46:13.467Z,23.32
2018-04-20T16:49:16.774Z,22.98
2018-04-20T16:52:20.036Z,23.47
2018-04-20T16:55:23.390Z,24.15
2018-04-20T16:58:26.765Z,23.88
2018-04-20T17:01:30.013Z,24.09
2018-04-20T17:04:33.373Z,24.43
2018-04-20T17:07:37.478Z,24.24
2018-04-20T17:10:40.913Z,24.13
2018-04-20T17:13:44.098Z,23.69
2018-04-20T17:16:47.456Z,23.07
2018-04-20T17:19:50.785Z,22.71
2018-04-20T17:22:54.044Z,23.06
2018-04-20T17:25:57.410Z,23.49
2018-04-20T17:29:00.749Z,23.57
2018-04-20T17:32:03.967Z,23.22
2018-04-20T17:35:07.333Z,23.81
2018-04-20T17:38:10.728Z,23.93
2018-04-20T17:41:14.028Z,24.04
2018-04-20T17:44:17.441Z,24.43
2018-04-20T17:47:20.723Z,25.72
2018-04-20T17:50:24.013Z,25.41
2018-04-20T17:53:27.320Z,25.51
2018-04-20T17:56:30.615Z,26.36
2018-04-20T17:59:33.998Z,27.32
2018-04-20T18:02:37.204Z,27.64
2018-04-20T18:05:40.513Z,28.51
2018-04-20T18:08:43.819Z,29.86
2018-04-20T18:11:47.135Z,30.54
2018-04-20T18:14:50.433Z,29.77
2018-04-20T18:18:17.228Z,31.00
2018-04-20T18:21:26.356Z,32.22
2018-04-20T18:24:36.046Z,32.34
2018-04-20T18:27:44.376Z,33.26
2018-04-20T18:30:48.512Z,32.75
2018-04-20T18:33:55.503Z,33.27
2018-04-20T18:36:58.638Z,34.25
2018-04-20T18:40:01.839Z,34.96
2018-04-20T18:43:06.023Z,35.07
2018-04-20T18:46:09.222Z,34.96
2018-04-20T18:49:23.574Z,34.98
2018-04-20T18:55:58.739Z,36.31
2018-04-20T18:59:13.423Z,37.71
2018-04-20T19:02:24.695Z,38.01
2018-04-20T19:05:47.335Z,37.42
2018-04-20T19:09:09.846Z,37.95
2018-04-20T19:15:40.602Z,40.39
2018-04-20T19:22:23.511Z,41.21
2018-04-20T19:28:58.130Z,42.32
2018-04-20T19:32:03.303Z,42.75
2018-04-20T19:35:12.144Z,43.00
2018-04-20T19:41:43.058Z,43.72
2018-04-20T19:45:00.472Z,43.34
2018-04-20T19:48:10.700Z,44.18
2018-04-20T19:51:30.879Z,43.54
2018-04-20T19:58:02.202Z,43.68
2018-04-20T20:01:18.276Z,45.73
2018-04-20T20:04:21.488Z,46.21
2018-04-20T20:07:30.563Z,45.70
2018-04-20T20:10:35.729Z,46.25
2018-04-20T20:14:01.918Z,46.31
2018-04-20T20:17:05.098Z,46.71
2018-04-20T20:30:52.002Z,47.52
2018-04-20T20:34:00.079Z,47.55
2018-04-20T20:40:50.912Z,48.45
2018-04-20T20:44:00.698Z,49.08
2018-04-20T20:57:29.879Z,51.10
2018-04-20T21:07:41.423Z,49.93
2018-04-20T21:10:56.715Z,50.97
2018-04-20T21:17:49.608Z,51.61
2018-04-20T21:20:57.315Z,50.64
2018-04-20T21:24:01.436Z,51.53
2018-04-20T21:27:14.164Z,51.00
2018-04-20T21:30:30.250Z,51.50
2018-04-20T21:33:45.683Z,52.09
2018-04-20T21:36:53.006Z,52.37
2018-04-20T21:39:58.174Z,52.62
2018-04-20T21:43:01.282Z,53.03
2018-04-20T21:53:08.325Z,53.41
2018-04-20T21:56:16.130Z,53.30
2018-04-20T22:09:59.807Z,53.52
2018-04-20T22:13:07.548Z,52.81
2018-04-20T22:23:17.782Z,52.72
2018-04-20T22:26:20.970Z,53.58
2018-04-20T22:29:40.905Z,52.58
2018-04-20T22:32:45.014Z,54.18
2018-04-20T22:35:56.173Z,55.02
2018-04-20T22:39:22.666Z,54.74
2018-04-20T22:42:25.849Z,55.86
2018-04-20T22:49:01.603Z,55.95
2018-04-20T22:52:05.755Z,56.36
2018-04-20T22:55:12.642Z,56.34
2018-04-20T23:02:00.828Z,56.79
2018-04-20T23:22:23.151Z,56.87
2018-04-20T23:25:30.874Z,55.04
2018-04-20T23:35:34.540Z,56.44
2018-04-20T23:42:30.119Z,59.07
2018-04-20T23:45:34.309Z,59.41
2018-04-20T23:52:09.541Z,58.49
2018-04-20T23:55:30.430Z,59.23
2018-04-20T23:58:51.243Z,59.52
